createdAt,value
2018-07-31T00:08:04.544Z,72.9
2018-07-31T00:18:18.311Z,71
2018-07-31T00:28:32.218Z,68.2
2018-07-31T00:38:46.180Z,66.9
2018-07-31T00:49:01.528Z,66.7
2018-07-31T00:59:16.708Z,71.2
2018-07-31T01:09:31.297Z,66.7
2018-07-31T01:19:45.730Z,62.8
2018-07-31T01:29:59.730Z,59.1
2018-07-31T01:40:13.583Z,52.1
2018-07-31T02:00:43.788Z,46.4
2018-07-31T02:10:58.478Z,40.3
2018-07-31T02:21:13.263Z,31.6
2018-07-31T02:31:28.660Z,26.9
2018-07-31T02:41:43.194Z,19.4
2018-07-31T02:51:58.113Z,19
2018-07-31T03:02:12.738Z,17.8
2018-07-31T03:12:26.664Z,13.9
2018-07-31T03:22:41.330Z,10.2
2018-07-31T03:32:56.959Z,6.9
2018-07-31T03:43:11.875Z,3.6
2018-07-31T03:53:26.452Z,1.4
2018-07-31T04:03:40.016Z,0.3
2018-07-31T04:13:54.301Z,0.8
2018-07-31T04:24:09.992Z,0
2018-07-31T04:34:25.443Z,0
2018-07-31T04:44:39.510Z,0
2018-07-31T04:54:54.134Z,0
2018-07-31T05:05:09.300Z,0
2018-07-31T05:15:23.644Z,0
2018-07-31T05:25:39.333Z,0
2018-07-31T05:35:54.194Z,4.2
2018-07-31T05:46:08.817Z,8.8
2018-07-31T05:56:23.947Z,32.4
2018-07-31T06:06:39.700Z,22.2
2018-07-31T06:16:54.312Z,16.9
2018-07-31T06:27:08.915Z,14.4
2018-07-31T06:37:23.992Z,25.5
2018-07-31T06:47:37.720Z,34.9
2018-07-31T06:57:51.532Z,72.3
2018-07-31T07:08:06.053Z,89.8
2018-07-31T07:18:21.398Z,90.2
2018-07-31T07:28:36.205Z,95.1
2018-07-31T07:38:50.346Z,95.3
2018-07-31T07:49:05.872Z,96.9
2018-07-31T07:59:20.368Z,95.4
2018-07-31T08:09:34.667Z,93
2018-07-31T08:19:49.036Z,91.6
2018-07-31T08:30:04.002Z,86.6
2018-07-31T08:40:19.459Z,83.4
2018-07-31T09:00:48.833Z,75.8
2018-07-31T09:11:04.537Z,75.1
2018-07-31T09:21:19.479Z,75.2
2018-07-31T09:31:33.584Z,77.3
2018-07-31T09:41:47.837Z,74.7
2018-07-31T09:52:03.530Z,72.7
2018-07-31T10:02:19.776Z,72
2018-07-31T10:12:35.127Z,69.1
2018-07-31T10:22:49.699Z,70.2
2018-07-31T10:33:05.142Z,69.5
2018-07-31T10:43:20.623Z,68.3
2018-07-31T10:53:34.634Z,69.4
2018-07-31T11:03:50.169Z,68
2018-07-31T11:14:06.009Z,66.8
2018-07-31T11:24:21.908Z,65
2018-07-31T11:34:36.532Z,64.3
2018-07-31T11:44:52.457Z,61.9
2018-07-31T11:55:08.279Z,61.1
2018-07-31T12:05:23.946Z,58.1
2018-07-31T12:15:38.026Z,57.5
2018-07-31T12:25:52.473Z,57.5
2018-07-31T12:36:07.198Z,59.1
2018-07-31T12:46:22.930Z,59.7
2018-07-31T12:56:38.205Z,58.2
2018-07-31T13:06:52.187Z,56.3
2018-07-31T13:17:07.367Z,56.5
2018-07-31T13:27:23.179Z,57.9
2018-07-31T13:37:37.935Z,59.4
2018-07-31T13:47:52.988Z,60.3
2018-07-31T13:58:07.370Z,60.5
2018-07-31T14:08:22.875Z,59.2
2018-07-31T14:18:38.163Z,59.3
2018-07-31T14:28:52.532Z,61.3
2018-07-31T14:39:06.523Z,59.4
2018-07-31T14:49:22.375Z,60.1
2018-07-31T14:59:36.637Z,57.7
2018-07-31T15:09:52.293Z,56.6
2018-07-31T15:30:21.724Z,60.1
2018-07-31T15:40:37.360Z,58.9
2018-07-31T15:50:53.332Z,57.9
2018-07-31T16:01:08.001Z,58.1
2018-07-31T16:11:23.034Z,56.2
2018-07-31T16:21:38.536Z,54.7
2018-07-31T16:31:52.699Z,54.6
2018-07-31T16:42:07.279Z,56.7
2018-07-31T16:52:21.801Z,59.6
2018-07-31T17:02:36.533Z,61.2
2018-07-31T17:12:51.250Z,63.2
2018-07-31T17:23:06.572Z,63.4
2018-07-31T17:33:20.997Z,63.7
2018-07-31T17:43:35.732Z,64.9
2018-07-31T17:53:49.693Z,67
2018-07-31T18:04:03.545Z,68.6
2018-07-31T18:14:19.715Z,68.5
2018-07-31T18:24:34.881Z,69.7
2018-07-31T18:34:50.542Z,70.5
2018-07-31T18:45:06.163Z,70.7
2018-07-31T18:55:21.687Z,71
2018-07-31T19:05:36.374Z,71.1
2018-07-31T19:15:50.963Z,71
2018-07-31T19:26:05.771Z,72
2018-07-31T19:36:20.409Z,71.9
2018-07-31T19:46:35.674Z,72.2
2018-07-31T19:56:49.895Z,73.4
2018-07-31T20:07:05.123Z,73.9
2018-07-31T20:17:19.979Z,75.4
2018-07-31T20:27:34.584Z,74.8
2018-07-31T20:37:49.585Z,74.5
2018-07-31T20:48:04.938Z,75.4
2018-07-31T20:58:18.982Z,77
2018-07-31T21:08:33.360Z,77.8
2018-07-31T21:18:49.244Z,78.3
2018-07-31T21:29:04.271Z,78.9
2018-07-31T21:39:18.127Z,79.9
2018-07-31T21:49:32.970Z,80.8
2018-07-31T21:59:46.965Z,82.1
2018-07-31T22:10:01.942Z,83
2018-07-31T22:20:16.985Z,82.5
2018-07-31T22:30:32.238Z,82.8
2018-07-31T22:40:47.897Z,83.9
2018-07-31T22:51:02.431Z,83.8
2018-07-31T23:01:16.898Z,84.2
2018-07-31T23:11:30.762Z,84.5
2018-07-31T23:21:45.375Z,83.3
2018-07-31T23:32:00.191Z,85.1
2018-07-31T23:42:14.297Z,85.1
2018-07-31T23:52:30.010Z,81.9
